Time;durP1;ratioP1;P1;durP2;ratioP2;P2;SDS_P1;SDS_P2;PMS_P1;PMS_P2;Temp;Humidity;BMP_temperature;BMP_pressure;BME280_temperature;BME280_humidity;BME280_pressure;Samples;Min_cycle;Max_cycle;Signal;HPM_P1;HPM_P2
2023/01/31 00:00:25;;;;;;;6.72;3.30;;;1.00;99.90;;;;;;8291955;28;20063;-78
2023/01/31 00:04:26;;;;;;;7.80;3.40;;;1.00;99.90;;;;;;8299566;28;20537;-79
2023/01/31 00:08:26;;;;;;;12.38;3.75;;;0.90;99.90;;;;;;8287098;28;20018;-78
2023/01/31 00:12:27;;;;;;;6.93;3.50;;;0.80;99.90;;;;;;8276371;28;20026;-78
2023/01/31 00:16:27;;;;;;;4.53;2.88;;;1.00;99.90;;;;;;8277122;28;20513;-77
2023/01/31 00:20:28;;;;;;;7.00;3.33;;;0.90;99.90;;;;;;8284282;28;20199;-77
2023/01/31 00:24:28;;;;;;;8.80;3.13;;;0.80;99.90;;;;;;8296750;28;20474;-78
2023/01/31 00:28:29;;;;;;;6.75;3.65;;;0.90;99.90;;;;;;8292297;28;20056;-78
2023/01/31 00:32:29;;;;;;;7.88;3.40;;;0.80;99.90;;;;;;8299433;28;20032;-78
2023/01/31 00:36:32;;;;;;;6.32;3.75;;;0.90;99.90;;;;;;8317702;28;20481;-77
2023/01/31 00:40:33;;;;;;;9.88;3.50;;;0.60;99.90;;;;;;8318915;28;20071;-79
2023/01/31 00:44:33;;;;;;;7.60;4.03;;;0.60;99.90;;;;;;8316510;28;20112;-78
2023/01/31 00:48:34;;;;;;;7.05;3.35;;;0.70;99.90;;;;;;8284021;28;20378;-79
2023/01/31 00:52:35;;;;;;;7.88;3.67;;;0.70;99.90;;;;;;8293136;28;20077;-78
2023/01/31 00:56:37;;;;;;;7.78;3.40;;;0.50;99.90;;;;;;8282372;28;20029;-78
2023/01/31 01:00:37;;;;;;;8.98;4.03;;;0.40;99.90;;;;;;8299946;28;20021;-77
2023/01/31 01:04:37;;;;;;;7.47;3.47;;;0.30;99.90;;;;;;8286123;28;20442;-77
2023/01/31 01:08:39;;;;;;;11.00;4.40;;;0.20;99.90;;;;;;8302841;28;20071;-79
2023/01/31 01:12:40;;;;;;;8.00;4.07;;;0.00;99.90;;;;;;8277177;28;20033;-78
2023/01/31 01:16:41;;;;;;;5.30;3.05;;;-0.40;99.90;;;;;;8307473;28;20026;-77
2023/01/31 01:20:42;;;;;;;8.48;4.10;;;-0.30;99.90;;;;;;8277657;28;20033;-77
2023/01/31 01:24:43;;;;;;;5.35;2.67;;;-0.40;99.90;;;;;;8282944;28;20049;-77
2023/01/31 01:28:44;;;;;;;5.53;2.72;;;-0.60;99.90;;;;;;8283018;28;20025;-78
2023/01/31 01:32:45;;;;;;;7.63;3.85;;;-0.60;99.90;;;;;;8308707;28;20481;-78
2023/01/31 01:36:46;;;;;;;7.32;3.20;;;-0.50;99.90;;;;;;8300558;28;20615;-79
2023/01/31 01:40:46;;;;;;;6.70;3.40;;;-0.90;99.90;;;;;;8292291;28;20022;-79
2023/01/31 01:44:54;;;;;;;7.78;3.67;;;-1.10;99.90;;;;;;8312200;28;20026;-78
2023/01/31 01:49:14;;;;;;;5.30;3.10;;;-0.80;99.90;;;;;;8283982;28;20160;-78
2023/01/31 01:53:19;;;;;;;6.47;2.70;;;-1.00;99.90;;;;;;8298541;28;20026;-77
2023/01/31 01:57:29;;;;;;;6.03;3.55;;;-1.20;99.90;;;;;;8297853;28;20029;-78
2023/01/31 02:01:34;;;;;;;6.55;2.88;;;-1.20;99.90;;;;;;8301751;28;20033;-78
2023/01/31 02:05:48;;;;;;;4.03;1.90;;;-1.00;99.90;;;;;;8290730;28;20457;-76
2023/01/31 02:10:07;;;;;;;6.65;2.90;;;-1.00;99.90;;;;;;8313395;28;20033;-78
2023/01/31 02:14:10;;;;;;;5.47;2.63;;;-1.10;99.90;;;;;;8286609;28;20467;-79
2023/01/31 02:18:11;;;;;;;6.78;2.92;;;-1.20;99.90;;;;;;8281425;28;20064;-78
2023/01/31 02:22:47;;;;;;;7.43;3.38;;;-1.30;99.90;;;;;;8294417;28;20022;-78
2023/01/31 02:27:14;;;;;;;6.72;2.83;;;-1.30;99.90;;;;;;8222781;28;20036;-79
2023/01/31 02:31:33;;;;;;;6.78;3.47;;;-1.30;99.90;;;;;;8311457;28;20022;-78
2023/01/31 02:35:57;;;;;;;7.60;3.97;;;-1.20;99.90;;;;;;8298813;28;20045;-77
2023/01/31 02:40:07;;;;;;;4.95;3.00;;;-1.40;99.90;;;;;;8322239;28;20026;-79
2023/01/31 02:49:06;;;;;;;5.90;2.97;;;-1.40;99.90;;;;;;8315153;28;20040;-78
2023/01/31 02:53:14;;;;;;;5.47;3.20;;;-1.50;99.90;;;;;;8312959;28;20025;-79
2023/01/31 02:57:15;;;;;;;9.60;3.67;;;-1.70;99.90;;;;;;8294872;28;20124;-79
2023/01/31 03:01:22;;;;;;;4.82;2.95;;;-1.70;99.90;;;;;;8303701;28;20079;-78
2023/01/31 03:05:23;;;;;;;7.82;3.20;;;-1.60;99.90;;;;;;8306985;28;20041;-79
2023/01/31 03:09:35;;;;;;;6.82;3.88;;;-1.80;99.90;;;;;;8297438;28;20048;-79
2023/01/31 03:13:53;;;;;;;4.45;3.08;;;-1.60;99.90;;;;;;8272920;28;20556;-77
2023/01/31 03:18:07;;;;;;;5.65;3.03;;;-1.60;99.90;;;;;;8307799;28;20049;-79
2023/01/31 03:22:22;;;;;;;7.97;4.47;;;-1.60;99.90;;;;;;8281389;28;20030;-79
2023/01/31 03:26:24;;;;;;;6.15;3.30;;;-1.60;99.90;;;;;;8305442;28;20021;-78
2023/01/31 03:30:39;;;;;;;7.43;3.72;;;-1.50;99.90;;;;;;8310397;28;20021;-79
2023/01/31 03:34:40;;;;;;;5.78;2.95;;;-1.70;99.90;;;;;;8322078;28;20397;-79
2023/01/31 03:39:22;;;;;;;5.25;3.08;;;-1.70;99.90;;;;;;8305762;28;20497;-79
2023/01/31 03:43:36;;;;;;;7.15;3.17;;;-1.70;99.90;;;;;;8256780;28;20033;-79
2023/01/31 03:47:48;;;;;;;4.93;3.03;;;-1.40;99.90;;;;;;8315776;28;20014;-78
2023/01/31 03:51:53;;;;;;;6.20;3.22;;;-1.60;99.90;;;;;;8280925;28;20022;-78
2023/01/31 03:56:00;;;;;;;5.05;3.33;;;-1.80;99.90;;;;;;8323560;28;20021;-77
2023/01/31 04:00:03;;;;;;;5.75;2.97;;;-1.70;99.90;;;;;;8309018;28;20105;-79
2023/01/31 04:04:12;;;;;;;5.82;3.22;;;-2.00;99.90;;;;;;8285857;28;20112;-78
2023/01/31 04:08:13;;;;;;;6.13;3.03;;;-2.30;99.90;;;;;;8297848;28;20513;-77
2023/01/31 04:12:14;;;;;;;5.60;3.22;;;-2.40;99.90;;;;;;8302187;28;20120;-79
2023/01/31 04:16:15;;;;;;;4.40;2.10;;;-2.40;99.90;;;;;;8283047;28;20025;-78
2023/01/31 04:20:15;;;;;;;5.57;2.70;;;-2.30;99.90;;;;;;8296273;28;20104;-78
2023/01/31 04:24:16;;;;;;;5.97;3.40;;;-2.20;99.90;;;;;;8295918;28;20021;-78
2023/01/31 04:28:17;;;;;;;4.85;2.72;;;-2.20;99.90;;;;;;8303620;28;20022;-76
2023/01/31 04:32:17;;;;;;;5.93;3.47;;;-1.80;99.90;;;;;;8281949;28;20029;-78
2023/01/31 04:36:18;;;;;;;5.25;2.90;;;-1.70;99.90;;;;;;8294192;28;20033;-78
2023/01/31 04:40:18;;;;;;;9.35;3.15;;;-1.60;99.90;;;;;;8278298;28;20064;-78
2023/01/31 04:44:19;;;;;;;10.43;2.13;;;-1.50;99.90;;;;;;8303501;28;20520;-78
2023/01/31 04:48:19;;;;;;;5.80;2.90;;;-1.50;99.90;;;;;;8301935;28;20049;-77
2023/01/31 04:52:20;;;;;;;7.03;2.53;;;-1.60;99.90;;;;;;8292244;28;20029;-78
2023/01/31 04:56:21;;;;;;;7.80;3.13;;;-1.60;99.90;;;;;;8294961;28;20068;-78
2023/01/31 05:00:21;;;;;;;7.25;3.25;;;-1.40;99.90;;;;;;8280452;28;20025;-78
2023/01/31 05:04:22;;;;;;;6.88;3.42;;;-1.50;99.90;;;;;;8266175;28;20048;-78
2023/01/31 05:08:23;;;;;;;6.97;2.70;;;-1.70;99.90;;;;;;8300064;28;20096;-78
2023/01/31 05:12:23;;;;;;;6.30;3.30;;;-1.80;99.90;;;;;;8269648;28;20079;-78
2023/01/31 05:16:24;;;;;;;7.05;2.70;;;-1.60;99.90;;;;;;8274118;28;20371;-77
2023/01/31 05:20:24;;;;;;;6.43;2.97;;;-1.60;99.90;;;;;;8275118;28;20036;-79
2023/01/31 05:24:27;;;;;;;5.00;2.72;;;-1.70;99.90;;;;;;8278371;28;20513;-79
2023/01/31 05:28:28;;;;;;;8.95;4.03;;;-1.90;99.90;;;;;;8298510;28;20490;-77
2023/01/31 05:32:28;;;;;;;7.00;3.85;;;-2.10;99.90;;;;;;8310848;28;20023;-77
2023/01/31 05:36:29;;;;;;;7.68;3.25;;;-2.00;99.90;;;;;;8320258;28;20033;-78
2023/01/31 05:40:30;;;;;;;7.10;2.38;;;-2.20;99.90;;;;;;8322184;28;20032;-78
2023/01/31 05:44:31;;;;;;;6.57;2.75;;;-2.30;99.90;;;;;;8301087;28;20036;-77
2023/01/31 05:48:32;;;;;;;4.65;2.60;;;-2.50;99.90;;;;;;8311499;28;20028;-78
2023/01/31 05:52:32;;;;;;;5.63;3.08;;;-2.60;99.90;;;;;;8311111;28;20026;-77
2023/01/31 05:56:33;;;;;;;8.35;3.33;;;-2.70;99.90;;;;;;8308531;28;20079;-79
2023/01/31 06:00:33;;;;;;;6.63;2.95;;;-2.50;99.90;;;;;;8296890;28;20026;-79
2023/01/31 06:04:34;;;;;;;4.35;2.58;;;-2.40;99.90;;;;;;8293517;28;20021;-79
2023/01/31 06:08:34;;;;;;;5.22;2.92;;;-2.40;99.90;;;;;;8290243;28;20022;-78
2023/01/31 06:12:35;;;;;;;6.45;3.47;;;-2.40;99.90;;;;;;8299910;28;20061;-78
2023/01/31 06:16:36;;;;;;;6.10;3.05;;;-2.60;99.90;;;;;;8281682;28;20037;-78
2023/01/31 06:20:37;;;;;;;4.55;2.10;;;-2.60;99.90;;;;;;8282198;28;20026;-77
2023/01/31 06:24:38;;;;;;;4.40;2.38;;;-2.70;99.90;;;;;;8288707;28;20137;-78
2023/01/31 06:28:38;;;;;;;6.53;2.55;;;-2.70;99.90;;;;;;8321219;28;20493;-78
2023/01/31 06:32:39;;;;;;;4.90;2.47;;;-2.70;99.90;;;;;;8310192;28;20125;-78
2023/01/31 06:36:39;;;;;;;9.27;3.05;;;-2.60;99.90;;;;;;8294606;28;20105;-78
2023/01/31 06:40:40;;;;;;;3.83;2.72;;;-2.30;99.90;;;;;;8320026;28;20018;-78
2023/01/31 06:44:40;;;;;;;7.18;2.83;;;-2.40;99.90;;;;;;8302419;28;20029;-78
2023/01/31 06:48:41;;;;;;;4.65;2.63;;;-2.40;99.90;;;;;;8302440;28;20437;-77
2023/01/31 06:52:42;;;;;;;9.75;3.50;;;-2.30;99.90;;;;;;8308943;28;20021;-78
2023/01/31 06:56:42;;;;;;;7.05;2.88;;;-2.00;99.90;;;;;;8297561;28;20485;-78
2023/01/31 07:00:43;;;;;;;7.85;2.65;;;-2.00;99.90;;;;;;8318262;28;20026;-78
2023/01/31 07:04:43;;;;;;;6.60;3.17;;;-2.10;99.90;;;;;;8297809;28;20024;-79
2023/01/31 07:08:44;;;;;;;4.15;2.83;;;-2.30;99.90;;;;;;8280820;28;20032;-79
2023/01/31 07:12:45;;;;;;;7.07;3.50;;;-2.50;99.90;;;;;;8280491;28;20072;-79
2023/01/31 07:16:45;;;;;;;3.38;1.50;;;-2.40;99.90;;;;;;8279496;28;20024;-78
2023/01/31 07:20:46;;;;;;;11.98;2.92;;;-2.20;99.90;;;;;;8278628;28;20071;-77
2023/01/31 07:24:49;;;;;;;6.68;3.30;;;-2.10;99.90;;;;;;8304552;28;20108;-78
2023/01/31 07:28:51;;;;;;;4.07;2.38;;;-2.00;99.90;;;;;;8318969;28;20035;-79
2023/01/31 07:32:52;;;;;;;9.30;3.35;;;-2.10;99.90;;;;;;8294671;28;20080;-79
2023/01/31 07:36:52;;;;;;;5.15;2.53;;;-1.90;99.90;;;;;;8325732;28;20083;-77
2023/01/31 07:40:53;;;;;;;5.72;3.05;;;-1.50;99.90;;;;;;8301385;28;20046;-78
2023/01/31 07:44:53;;;;;;;10.25;4.10;;;-1.50;99.90;;;;;;8300189;28;20022;-77
2023/01/31 07:48:54;;;;;;;7.38;3.13;;;-1.40;99.90;;;;;;8307950;28;20048;-78
2023/01/31 07:52:57;;;;;;;5.95;3.42;;;-1.20;99.90;;;;;;8315999;28;20033;-78
2023/01/31 07:56:58;;;;;;;5.65;2.95;;;-1.10;99.90;;;;;;8300443;28;20049;-79
2023/01/31 08:05:31;;;;;;;6.28;3.55;;;-0.90;99.90;;;;;;8287896;28;20034;-79
2023/01/31 08:09:32;;;;;;;7.68;3.53;;;-0.90;99.90;;;;;;8293657;28;20113;-79
2023/01/31 08:13:34;;;;;;;6.03;3.58;;;-0.80;99.90;;;;;;8294604;28;20425;-77
2023/01/31 08:17:34;;;;;;;6.18;3.22;;;-0.70;99.90;;;;;;8278675;28;20486;-79
2023/01/31 08:21:35;;;;;;;8.40;4.13;;;-0.70;99.90;;;;;;8285239;28;20037;-77
2023/01/31 08:25:36;;;;;;;6.57;3.80;;;-0.40;99.90;;;;;;8292766;28;20390;-79
2023/01/31 08:29:36;;;;;;;9.52;4.32;;;-0.20;99.90;;;;;;8307042;28;20017;-77
2023/01/31 08:33:37;;;;;;;9.98;3.88;;;-0.20;99.90;;;;;;8324178;28;20033;-77
2023/01/31 08:37:37;;;;;;;8.13;3.40;;;-0.20;99.90;;;;;;8307401;28;20049;-77
2023/01/31 08:41:38;;;;;;;7.13;3.83;;;-0.10;99.90;;;;;;8292548;28;20116;-78
2023/01/31 08:45:39;;;;;;;9.95;3.97;;;0.00;99.90;;;;;;8292880;28;20401;-79
2023/01/31 08:49:40;;;;;;;7.28;3.42;;;0.10;99.90;;;;;;8298516;28;20042;-78
2023/01/31 08:53:45;;;;;;;3.58;2.65;;;0.30;99.90;;;;;;8320721;28;20018;-78
2023/01/31 08:57:45;;;;;;;8.82;3.65;;;0.30;99.90;;;;;;8298995;28;20540;-77
2023/01/31 09:01:46;;;;;;;6.22;3.38;;;0.50;99.90;;;;;;8297514;28;20466;-78
2023/01/31 09:05:47;;;;;;;3.70;2.38;;;0.70;99.90;;;;;;8277393;28;20101;-79
2023/01/31 09:09:48;;;;;;;4.22;1.30;;;0.70;99.90;;;;;;8285488;28;20015;-79
2023/01/31 09:13:50;;;;;;;5.78;3.10;;;0.80;99.90;;;;;;8294071;28;20088;-78
2023/01/31 09:17:50;;;;;;;11.05;3.60;;;0.90;99.90;;;;;;8276651;28;20041;-78
2023/01/31 09:26:07;;;;;;;4.57;2.28;;;1.30;99.90;;;;;;8259644;28;20042;-78
2023/01/31 09:30:09;;;;;;;12.30;2.40;;;1.60;99.90;;;;;;8259662;28;20033;-78
2023/01/31 09:34:09;;;;;;;7.63;2.60;;;2.00;99.90;;;;;;8259683;28;20099;-78
2023/01/31 09:38:10;;;;;;;4.13;2.00;;;2.20;99.90;;;;;;8259617;28;20014;-78
2023/01/31 09:42:23;;;;;;;5.40;2.33;;;2.40;99.90;;;;;;8260371;28;20018;-78
2023/01/31 09:46:28;;;;;;;3.20;1.88;;;2.80;99.90;;;;;;8259460;28;20026;-77
2023/01/31 09:50:37;;;;;;;4.93;2.45;;;3.60;99.90;;;;;;8258419;28;20068;-77
2023/01/31 09:54:39;;;;;;;4.93;2.25;;;4.10;99.90;;;;;;8249655;28;20683;-78
2023/01/31 09:58:45;;;;;;;9.15;3.10;;;4.30;99.90;;;;;;8251518;28;20026;-77
2023/01/31 10:03:16;;;;;;;5.10;2.65;;;4.40;99.90;;;;;;8256263;28;20022;-77
2023/01/31 10:08:07;;;;;;;2.63;1.50;;;4.30;99.90;;;;;;8257957;28;20030;-77
2023/01/31 10:12:13;;;;;;;3.07;1.80;;;4.40;99.90;;;;;;8208616;28;20398;-77
2023/01/31 10:16:28;;;;;;;5.63;2.08;;;4.60;99.90;;;;;;8256669;28;20019;-77
2023/01/31 10:20:41;;;;;;;8.00;2.10;;;4.50;99.90;;;;;;8258089;28;20054;-77
2023/01/31 10:24:51;;;;;;;34.10;12.57;;;4.60;99.90;;;;;;8248920;28;20052;-77
2023/01/31 10:28:55;;;;;;;10.43;3.70;;;4.80;99.90;;;;;;8260355;28;20097;-78
2023/01/31 10:33:02;;;;;;;3.28;1.90;;;5.00;99.90;;;;;;8262733;28;20489;-78
2023/01/31 10:37:15;;;;;;;3.13;1.60;;;5.40;99.90;;;;;;8262532;28;20348;-77
2023/01/31 10:41:26;;;;;;;5.82;2.47;;;5.40;99.90;;;;;;8264542;28;20030;-78
2023/01/31 10:45:32;;;;;;;6.97;2.65;;;5.60;99.90;;;;;;8262452;28;20030;-78
2023/01/31 10:49:32;;;;;;;3.95;2.50;;;5.70;99.90;;;;;;8262874;28;20026;-78
2023/01/31 10:54:02;;;;;;;4.82;2.30;;;5.70;99.90;;;;;;8262924;28;20530;-78
2023/01/31 10:58:03;;;;;;;5.78;2.60;;;5.60;99.90;;;;;;8258328;28;20049;-77
2023/01/31 11:02:15;;;;;;;5.30;2.80;;;5.40;99.90;;;;;;8262094;28;20054;-77
2023/01/31 11:06:16;;;;;;;9.35;3.30;;;5.30;99.90;;;;;;8261964;28;20018;-78
2023/01/31 11:10:49;;;;;;;13.48;3.17;;;5.30;99.90;;;;;;8262213;28;20033;-78
2023/01/31 11:15:13;;;;;;;4.32;2.42;;;5.00;99.90;;;;;;8255518;28;20093;-78
2023/01/31 11:19:46;;;;;;;4.95;3.00;;;5.00;99.90;;;;;;8263179;28;20022;-78
2023/01/31 11:23:49;;;;;;;7.10;2.80;;;4.80;99.90;;;;;;8255115;28;20145;-78
2023/01/31 11:27:53;;;;;;;3.90;2.67;;;4.70;99.90;;;;;;8264236;28;20084;-77
2023/01/31 11:31:55;;;;;;;5.55;2.72;;;4.50;99.90;;;;;;8262570;28;20428;-78
2023/01/31 11:35:56;;;;;;;5.20;3.00;;;4.40;99.90;;;;;;8261829;28;20565;-77
2023/01/31 11:40:17;;;;;;;5.75;2.90;;;4.50;99.90;;;;;;8264810;28;20038;-78
2023/01/31 11:44:20;;;;;;;7.20;3.08;;;4.30;99.90;;;;;;8264843;28;20451;-77
2023/01/31 11:48:31;;;;;;;6.60;2.78;;;4.20;99.90;;;;;;8262223;28;20018;-78
2023/01/31 11:52:33;;;;;;;7.88;3.85;;;4.30;99.90;;;;;;8262985;28;20037;-78
2023/01/31 11:56:36;;;;;;;9.73;3.42;;;4.50;99.90;;;;;;8261658;28;20079;-78
2023/01/31 12:00:43;;;;;;;5.47;2.80;;;4.20;99.90;;;;;;8262509;28;20022;-78
2023/01/31 12:04:43;;;;;;;5.53;2.58;;;4.30;99.90;;;;;;8257227;28;20108;-78
2023/01/31 12:08:44;;;;;;;5.20;3.17;;;4.40;99.90;;;;;;8262361;28;20033;-78
2023/01/31 12:12:44;;;;;;;5.45;3.20;;;4.50;99.90;;;;;;8261587;28;20027;-78
2023/01/31 12:16:47;;;;;;;6.13;3.95;;;4.80;99.90;;;;;;8259077;28;20038;-78
2023/01/31 12:21:09;;;;;;;5.75;2.78;;;4.80;99.90;;;;;;8260074;28;20027;-78
2023/01/31 12:25:41;;;;;;;4.75;3.00;;;4.60;99.90;;;;;;8262514;28;20117;-78
2023/01/31 12:30:05;;;;;;;5.55;3.15;;;4.60;99.90;;;;;;8260499;28;20407;-78
2023/01/31 12:34:31;;;;;;;4.97;3.00;;;4.90;99.90;;;;;;8251033;28;20025;-78
2023/01/31 12:38:39;;;;;;;6.88;3.10;;;5.60;99.90;;;;;;8261264;28;20030;-78
2023/01/31 12:42:53;;;;;;;3.35;1.80;;;6.00;99.90;;;;;;8261428;28;20032;-78
2023/01/31 12:47:28;;;;;;;4.47;2.78;;;6.00;99.90;;;;;;8260150;28;20031;-78
2023/01/31 12:51:42;;;;;;;5.95;3.28;;;6.00;99.90;;;;;;8259570;28;20407;-78
2023/01/31 12:56:04;;;;;;;4.45;2.22;;;6.10;99.90;;;;;;8251045;28;20014;-78
2023/01/31 13:00:23;;;;;;;5.55;2.63;;;6.10;99.90;;;;;;8269501;28;20494;-78
2023/01/31 13:04:45;;;;;;;4.45;2.72;;;6.20;99.90;;;;;;8258909;28;20054;-78
2023/01/31 13:09:07;;;;;;;4.30;2.30;;;6.50;99.90;;;;;;8253650;28;20026;-78
2023/01/31 13:13:17;;;;;;;15.15;5.88;;;6.40;99.90;;;;;;8260054;28;20026;-78
2023/01/31 13:17:24;;;;;;;2.42;1.45;;;5.80;99.90;;;;;;8259199;28;20030;-78
2023/01/31 13:21:30;;;;;;;4.07;2.60;;;5.50;99.90;;;;;;8258807;28;20113;-78
2023/01/31 13:25:46;;;;;;;5.50;2.42;;;5.20;99.90;;;;;;8258385;28;20117;-79
2023/01/31 13:29:55;;;;;;;4.57;2.60;;;5.00;99.90;;;;;;8259211;28;20018;-78
2023/01/31 13:34:16;;;;;;;6.00;3.40;;;5.20;99.90;;;;;;8258742;28;20119;-79
2023/01/31 13:38:19;;;;;;;5.40;2.63;;;5.20;99.90;;;;;;8259643;28;20380;-79
2023/01/31 13:42:20;;;;;;;6.22;2.78;;;5.30;99.90;;;;;;8260044;28;20114;-79
2023/01/31 13:46:26;;;;;;;5.70;2.90;;;5.30;99.90;;;;;;8259985;28;20023;-79
2023/01/31 13:50:43;;;;;;;6.90;3.05;;;5.20;99.90;;;;;;8259818;28;20030;-78
2023/01/31 13:54:52;;;;;;;4.97;2.78;;;4.90;99.90;;;;;;8251606;28;20037;-79
2023/01/31 13:58:54;;;;;;;5.70;2.92;;;4.60;99.90;;;;;;8260256;28;20042;-78
2023/01/31 14:03:09;;;;;;;4.07;1.92;;;4.60;99.90;;;;;;8260199;28;20557;-79
2023/01/31 14:07:20;;;;;;;8.20;3.15;;;4.40;99.90;;;;;;8264666;28;20368;-79
2023/01/31 14:11:24;;;;;;;5.90;3.05;;;4.30;99.90;;;;;;8264558;28;20502;-79
2023/01/31 14:15:47;;;;;;;6.38;2.55;;;4.30;99.90;;;;;;8266487;28;20492;-78
2023/01/31 14:19:50;;;;;;;4.70;2.70;;;4.30;99.90;;;;;;8257297;28;20037;-78
2023/01/31 14:23:50;;;;;;;6.53;3.15;;;4.30;99.90;;;;;;8264709;28;20117;-78
2023/01/31 14:27:51;;;;;;;5.32;2.92;;;4.30;99.90;;;;;;8265052;28;20402;-78
2023/01/31 14:31:54;;;;;;;11.07;3.13;;;4.20;99.90;;;;;;8264478;28;20034;-79
2023/01/31 14:36:06;;;;;;;6.75;3.20;;;4.20;99.90;;;;;;8263883;28;20164;-78
2023/01/31 14:40:12;;;;;;;5.07;2.33;;;4.20;99.90;;;;;;8263547;28;20567;-78
2023/01/31 14:44:48;;;;;;;5.63;3.10;;;4.40;99.90;;;;;;8265033;28;20033;-79
2023/01/31 14:49:21;;;;;;;4.60;2.95;;;4.30;99.90;;;;;;8257248;28;20014;-79
2023/01/31 14:53:48;;;;;;;5.57;2.92;;;4.60;99.90;;;;;;8261839;28;20023;-79
2023/01/31 14:57:54;;;;;;;4.70;2.85;;;4.60;99.90;;;;;;8254255;28;20093;-79
2023/01/31 15:01:56;;;;;;;5.20;2.47;;;4.60;99.90;;;;;;8264074;28;20023;-78
2023/01/31 15:06:23;;;;;;;5.53;2.90;;;4.60;99.90;;;;;;8263725;28;20110;-83
2023/01/31 15:10:52;;;;;;;3.10;1.90;;;4.50;99.90;;;;;;8262647;28;20402;-85
2023/01/31 15:14:52;;;;;;;3.42;2.28;;;4.30;99.90;;;;;;8263563;28;20177;-80
2023/01/31 15:19:05;;;;;;;6.38;3.42;;;4.10;99.90;;;;;;8266360;28;20026;-81
2023/01/31 15:23:10;;;;;;;5.43;2.80;;;3.90;99.90;;;;;;8263961;28;20249;-81
2023/01/31 15:27:30;;;;;;;1.90;1.17;;;3.80;99.90;;;;;;8276053;23;20523;-85
2023/01/31 15:31:40;;;;;;;4.32;2.58;;;3.90;99.90;;;;;;8222960;28;20027;-85
2023/01/31 15:35:54;;;;;;;15.32;6.35;;;3.80;99.90;;;;;;8221013;28;20031;-84
2023/01/31 15:40:08;;;;;;;16.15;5.53;;;3.80;99.90;;;;;;8215724;28;20027;-85
2023/01/31 15:44:22;;;;;;;4.45;2.95;;;3.90;99.90;;;;;;8212833;28;20066;-83
2023/01/31 15:48:22;;;;;;;6.65;3.17;;;3.80;99.90;;;;;;8207535;28;20038;-83
2023/01/31 15:52:23;;;;;;;9.15;4.80;;;3.70;99.90;;;;;;8210799;28;20023;-83
2023/01/31 15:56:25;;;;;;;11.88;4.57;;;3.60;99.90;;;;;;8218802;28;20260;-85
2023/01/31 16:00:32;;;;;;;9.23;3.63;;;3.50;99.90;;;;;;8204843;28;20066;-85
2023/01/31 16:04:38;;;;;;;8.00;3.95;;;3.50;99.90;;;;;;8202771;28;20038;-84
2023/01/31 16:08:39;;;;;;;4.25;2.40;;;3.40;99.90;;;;;;8199547;28;20065;-85
2023/01/31 16:12:49;;;;;;;4.85;2.53;;;3.20;99.90;;;;;;8217022;28;20033;-83
2023/01/31 16:16:50;;;;;;;;;;;3.10;99.90;;;;;;8213208;28;20038;-85
2023/01/31 16:20:54;;;;;;;4.22;2.45;;;3.00;99.90;;;;;;8223908;28;19964;-83
2023/01/31 16:24:59;;;;;;;3.17;1.75;;;3.10;99.90;;;;;;8211837;28;20046;-84
2023/01/31 16:29:12;;;;;;;8.25;2.00;;;3.20;99.90;;;;;;8247844;28;20026;-85
2023/01/31 16:33:22;;;;;;;2.03;1.52;;;3.10;99.90;;;;;;8236534;28;20411;-87
2023/01/31 16:37:32;;;;;;;2.83;1.83;;;3.20;99.90;;;;;;8230750;28;20029;-86
2023/01/31 16:41:42;;;;;;;;;;;3.10;99.90;;;;;;8234958;28;20026;-85
2023/01/31 16:45:58;;;;;;;2.75;1.70;;;3.00;99.90;;;;;;8241885;28;19909;-82
2023/01/31 16:50:20;;;;;;;3.30;1.83;;;3.00;99.90;;;;;;8223620;28;20476;-82
2023/01/31 16:54:24;;;;;;;3.67;1.88;;;2.90;99.90;;;;;;8220424;28;20459;-82
2023/01/31 16:58:44;;;;;;;5.07;1.75;;;2.90;99.90;;;;;;8221097;28;20633;-82
2023/01/31 17:02:44;;;;;;;3.47;2.10;;;2.90;99.90;;;;;;8212912;28;20019;-83
2023/01/31 17:06:59;;;;;;;4.13;1.95;;;3.00;99.90;;;;;;8206950;28;20083;-82
2023/01/31 17:11:00;;;;;;;2.90;1.90;;;3.00;99.90;;;;;;8204218;28;20105;-81
2023/01/31 17:15:01;;;;;;;1.90;1.38;;;2.90;99.90;;;;;;8221878;28;20037;-82
2023/01/31 17:19:02;;;;;;;6.72;2.97;;;2.80;99.90;;;;;;8223614;28;20023;-80
2023/01/31 17:23:02;;;;;;;3.20;1.67;;;2.90;99.90;;;;;;8206270;28;20034;-81
2023/01/31 17:27:03;;;;;;;5.07;1.92;;;3.00;99.90;;;;;;8213940;28;20390;-82
2023/01/31 17:31:03;;;;;;;5.32;1.98;;;2.90;99.90;;;;;;8206902;28;20026;-81
2023/01/31 17:35:33;;;;;;;4.93;2.83;;;2.90;99.90;;;;;;8206854;28;20063;-80
2023/01/31 17:39:34;;;;;;;4.05;2.00;;;2.90;99.90;;;;;;8208527;28;20528;-81
2023/01/31 17:43:34;;;;;;;5.05;2.33;;;2.90;99.90;;;;;;8217777;28;20050;-80
2023/01/31 17:47:35;;;;;;;4.22;2.17;;;2.90;99.90;;;;;;8240532;28;20034;-81
2023/01/31 17:51:35;;;;;;;4.38;1.95;;;2.80;99.90;;;;;;8225322;28;20042;-81
2023/01/31 17:55:36;;;;;;;4.63;2.42;;;2.90;99.90;;;;;;8206697;28;20031;-80
2023/01/31 17:59:36;;;;;;;3.65;1.95;;;3.00;99.90;;;;;;8210872;28;20034;-80
2023/01/31 18:03:37;;;;;;;2.47;1.30;;;3.00;99.90;;;;;;8211025;28;20026;-80
2023/01/31 18:07:38;;;;;;;12.02;4.65;;;2.90;99.90;;;;;;8217560;28;20030;-80
2023/01/31 18:11:42;;;;;;;6.32;3.75;;;3.00;99.90;;;;;;8215709;28;20023;-80
2023/01/31 18:15:42;;;;;;;7.63;2.65;;;3.00;99.90;;;;;;8220484;28;20015;-80
2023/01/31 18:19:43;;;;;;;5.53;2.15;;;3.00;99.90;;;;;;8211376;28;20034;-80
2023/01/31 18:23:49;;;;;;;3.83;2.42;;;3.00;99.90;;;;;;8208892;28;20503;-80
2023/01/31 18:27:49;;;;;;;4.60;2.05;;;2.90;99.90;;;;;;8217237;28;20026;-80
2023/01/31 18:31:54;;;;;;;4.57;2.55;;;2.90;99.90;;;;;;8249783;28;20204;-80
2023/01/31 18:35:59;;;;;;;6.25;2.60;;;3.00;99.90;;;;;;8224753;28;20110;-80
2023/01/31 18:40:00;;;;;;;5.85;2.88;;;3.00;99.90;;;;;;8225882;28;20035;-81
2023/01/31 18:44:00;;;;;;;4.75;2.15;;;3.00;99.90;;;;;;8204353;28;20085;-80
2023/01/31 18:48:01;;;;;;;5.55;2.40;;;3.10;99.90;;;;;;8205471;28;20030;-80
2023/01/31 18:52:02;;;;;;;8.07;2.95;;;3.00;99.90;;;;;;8206353;28;20550;-79
2023/01/31 18:56:08;;;;;;;3.33;1.48;;;3.00;99.90;;;;;;8217119;28;20033;-80
2023/01/31 19:00:10;;;;;;;4.28;2.28;;;3.10;99.90;;;;;;8209664;28;20023;-80
2023/01/31 19:04:10;;;;;;;5.85;2.70;;;2.90;99.90;;;;;;8209652;28;20027;-79
2023/01/31 19:08:11;;;;;;;5.43;2.20;;;2.90;99.90;;;;;;8227530;28;20228;-82
2023/01/31 19:12:11;;;;;;;5.18;2.38;;;3.00;99.90;;;;;;8205983;28;20122;-80
2023/01/31 19:16:30;;;;;;;3.40;2.10;;;3.00;99.90;;;;;;8235687;28;20407;-80
2023/01/31 19:20:31;;;;;;;9.50;2.47;;;3.00;99.90;;;;;;8220371;28;20045;-79
2023/01/31 19:24:31;;;;;;;6.00;2.55;;;3.10;99.90;;;;;;8207471;28;20039;-80
2023/01/31 19:28:35;;;;;;;4.00;2.55;;;3.00;99.90;;;;;;8214687;28;20044;-79
2023/01/31 19:32:35;;;;;;;4.00;2.38;;;2.90;99.90;;;;;;8210869;28;20030;-79
2023/01/31 19:36:38;;;;;;;4.43;2.22;;;2.80;99.90;;;;;;8245791;28;20387;-80
2023/01/31 19:40:41;;;;;;;5.10;3.05;;;2.90;99.90;;;;;;8211201;28;20668;-80
2023/01/31 19:44:42;;;;;;;5.95;2.35;;;2.80;99.90;;;;;;8229211;28;20052;-81
2023/01/31 19:48:42;;;;;;;4.88;2.72;;;2.70;99.90;;;;;;8228779;28;20523;-77
2023/01/31 19:52:43;;;;;;;7.10;3.17;;;2.70;99.90;;;;;;8227642;28;20025;-79
2023/01/31 19:56:44;;;;;;;5.90;2.67;;;2.70;99.90;;;;;;8246505;28;20089;-80
2023/01/31 20:00:45;;;;;;;5.65;2.38;;;2.70;99.90;;;;;;8211823;28;20035;-80
2023/01/31 20:04:46;;;;;;;4.97;2.58;;;2.70;99.90;;;;;;8212721;28;20105;-79
2023/01/31 20:08:51;;;;;;;4.20;2.17;;;2.80;99.90;;;;;;8211053;28;20065;-80
2023/01/31 20:12:52;;;;;;;4.47;2.60;;;2.80;99.90;;;;;;8213988;28;20042;-79
2023/01/31 20:16:52;;;;;;;3.60;2.63;;;2.80;99.90;;;;;;8219151;28;20042;-80
2023/01/31 20:20:53;;;;;;;3.13;2.15;;;2.80;99.90;;;;;;8207767;28;20038;-80
2023/01/31 20:24:55;;;;;;;5.25;2.45;;;2.70;99.90;;;;;;8221206;28;20035;-79
2023/01/31 20:28:56;;;;;;;6.18;3.05;;;2.60;99.90;;;;;;8238325;28;20023;-80
2023/01/31 20:32:57;;;;;;;6.20;2.58;;;2.40;99.90;;;;;;8235619;28;20157;-78
2023/01/31 20:36:57;;;;;;;3.95;2.40;;;2.40;99.90;;;;;;8226823;28;20027;-81
2023/01/31 20:40:58;;;;;;;7.20;2.55;;;2.50;99.90;;;;;;8209641;28;20078;-80
2023/01/31 20:44:59;;;;;;;4.60;1.75;;;2.50;99.90;;;;;;8222782;28;20185;-81
2023/01/31 20:48:59;;;;;;;7.35;2.63;;;2.50;99.90;;;;;;8245555;28;20024;-79
2023/01/31 20:53:00;;;;;;;4.32;1.70;;;2.50;99.90;;;;;;8214897;28;20035;-80
2023/01/31 20:57:00;;;;;;;7.22;2.13;;;2.50;99.90;;;;;;8221627;28;20170;-80
2023/01/31 21:01:01;;;;;;;5.43;2.55;;;2.50;99.90;;;;;;8255923;28;20053;-81
2023/01/31 21:05:01;;;;;;;6.57;3.35;;;2.60;99.90;;;;;;8212516;28;20022;-79
2023/01/31 21:09:02;;;;;;;6.20;3.08;;;2.60;99.90;;;;;;8211537;28;20034;-79
2023/01/31 21:13:03;;;;;;;6.93;2.28;;;2.60;99.90;;;;;;8218216;28;20050;-80
2023/01/31 21:17:04;;;;;;;2.28;1.33;;;2.70;99.90;;;;;;8219289;28;20383;-80
2023/01/31 21:21:07;;;;;;;4.32;2.67;;;2.80;99.90;;;;;;8219106;28;20398;-81
2023/01/31 21:25:08;;;;;;;4.55;2.50;;;2.70;99.90;;;;;;8206244;28;20026;-80
2023/01/31 21:29:08;;;;;;;6.38;2.80;;;2.80;99.90;;;;;;8229854;28;20506;-80
2023/01/31 21:33:09;;;;;;;5.38;2.33;;;2.80;99.90;;;;;;8252640;28;20026;-80
2023/01/31 21:37:09;;;;;;;5.80;2.78;;;2.80;99.90;;;;;;8239103;28;20145;-82
2023/01/31 21:45:39;;;;;;;6.95;2.80;;;2.60;99.90;;;;;;8256306;28;20446;-80